createdAt,value
2023-03-24T00:00:02.004Z,14.44
2023-03-24T00:02:37.911Z,14.49
2023-03-24T00:05:10.917Z,14.43
2023-03-24T00:10:19.140Z,14.37
2023-03-24T00:12:50.592Z,14.36
2023-03-24T00:15:24.188Z,14.34
2023-03-24T00:17:56.174Z,14.23
2023-03-24T00:20:29.521Z,14.22
2023-03-24T00:23:02.245Z,14.24
2023-03-24T00:25:36.640Z,14.22
2023-03-24T00:28:08.092Z,14.17
2023-03-24T00:30:38.787Z,14.20
2023-03-24T00:33:10.035Z,14.20
2023-03-24T00:35:40.315Z,14.22
2023-03-24T00:38:13.424Z,14.19
2023-03-24T00:40:48.680Z,14.15
2023-03-24T00:43:19.334Z,14.16
2023-03-24T00:45:49.747Z,14.17
2023-03-24T00:48:24.447Z,14.09
2023-03-24T00:50:55.437Z,14.09
2023-03-24T00:53:29.699Z,14.10
2023-03-24T00:56:01.421Z,14.07
2023-03-24T00:58:34.573Z,14.11
2023-03-24T01:01:06.487Z,14.08
2023-03-24T01:03:43.381Z,14.07
2023-03-24T01:06:13.430Z,14.08
2023-03-24T01:08:46.370Z,14.09
2023-03-24T01:11:16.770Z,14.09
2023-03-24T01:13:47.255Z,14.04
2023-03-24T01:16:17.645Z,14.10
2023-03-24T01:18:49.654Z,14.07
2023-03-24T01:21:19.702Z,14.21
2023-03-24T01:23:52.929Z,14.21
2023-03-24T01:26:22.995Z,14.11
2023-03-24T01:28:53.135Z,14.03
2023-03-24T01:31:23.221Z,14.06
2023-03-24T01:33:53.329Z,13.99
2023-03-24T01:36:23.451Z,14.04
2023-03-24T01:38:58.588Z,14.05
2023-03-24T01:41:30.659Z,13.97
2023-03-24T01:44:00.734Z,14.01
2023-03-24T01:46:33.481Z,14.04
2023-03-24T01:49:08.021Z,13.98
2023-03-24T01:51:44.844Z,14.08
2023-03-24T01:54:23.218Z,14.01
2023-03-24T01:57:02.644Z,14.15
2023-03-24T01:59:39.169Z,14.06
2023-03-24T02:02:16.213Z,14.10
2023-03-24T02:04:57.096Z,14.12
2023-03-24T02:07:38.383Z,14.09
2023-03-24T02:10:16.356Z,14.19
2023-03-24T02:12:48.321Z,14.23
2023-03-24T02:15:22.394Z,14.24
2023-03-24T02:18:03.342Z,14.14
2023-03-24T02:21:03.802Z,14.24
2023-03-24T02:24:23.490Z,14.40
2023-03-24T02:27:14.483Z,14.28
2023-03-24T02:30:13.850Z,14.24
2023-03-24T02:33:19.985Z,14.27
2023-03-24T02:36:17.600Z,14.15
2023-03-24T02:39:24.929Z,14.03
2023-03-24T02:42:06.615Z,14.22
2023-03-24T02:44:48.026Z,14.27
2023-03-24T02:47:22.502Z,14.11
2023-03-24T02:50:04.298Z,14.17
2023-03-24T02:52:45.885Z,14.24
2023-03-24T02:55:25.328Z,14.15
2023-03-24T02:58:05.022Z,14.17
2023-03-24T03:00:59.868Z,14.27
2023-03-24T03:03:54.918Z,14.20
2023-03-24T03:06:32.702Z,14.22
2023-03-24T03:09:09.929Z,14.23
2023-03-24T03:11:44.681Z,14.15
2023-03-24T03:14:23.023Z,14.15
2023-03-24T03:17:00.178Z,14.08
2023-03-24T03:19:36.480Z,14.19
2023-03-24T03:22:16.064Z,14.12
2023-03-24T03:24:53.943Z,14.18
2023-03-24T03:27:31.477Z,14.03
2023-03-24T03:30:11.149Z,13.90
2023-03-24T03:32:54.576Z,13.99
2023-03-24T03:35:32.231Z,13.89
2023-03-24T03:38:16.727Z,13.92
2023-03-24T03:40:54.443Z,14.09
2023-03-24T03:43:27.458Z,13.94
2023-03-24T03:46:02.477Z,14.03
2023-03-24T03:48:37.844Z,13.92
2023-03-24T03:51:13.726Z,14.02
2023-03-24T03:53:54.092Z,14.03
2023-03-24T03:56:28.082Z,14.08
2023-03-24T03:59:28.686Z,14.03
2023-03-24T04:02:08.581Z,14.13
2023-03-24T04:05:14.295Z,14.07
2023-03-24T04:08:14.711Z,14.10
2023-03-24T04:11:20.097Z,14.10
2023-03-24T04:14:28.166Z,14.01
2023-03-24T04:17:35.817Z,14.13
2023-03-24T04:20:15.528Z,14.14
2023-03-24T04:23:03.696Z,14.17
2023-03-24T04:25:56.804Z,14.22
2023-03-24T04:28:38.268Z,14.27
2023-03-24T04:31:20.129Z,14.31
2023-03-24T04:34:04.349Z,14.23
2023-03-24T04:36:45.567Z,14.26
2023-03-24T04:39:47.128Z,14.18
2023-03-24T04:42:29.113Z,14.06
2023-03-24T04:45:03.233Z,13.97
2023-03-24T04:47:49.109Z,13.77
2023-03-24T04:50:41.151Z,13.68
2023-03-24T04:53:16.871Z,13.61
2023-03-24T04:56:06.639Z,13.54
2023-03-24T04:59:02.632Z,13.43
2023-03-24T05:01:32.879Z,13.47
2023-03-24T05:04:23.824Z,13.50
2023-03-24T05:06:56.936Z,13.44
2023-03-24T05:09:31.718Z,13.33
2023-03-24T05:12:03.054Z,13.30
2023-03-24T05:14:39.540Z,13.33
2023-03-24T05:17:10.443Z,13.42
2023-03-24T05:19:40.469Z,13.35
2023-03-24T05:22:13.052Z,13.35
2023-03-24T05:24:43.093Z,13.35
2023-03-24T05:27:13.091Z,13.35
2023-03-24T05:29:43.178Z,13.28
2023-03-24T05:32:16.134Z,13.32
2023-03-24T05:34:46.126Z,13.30
2023-03-24T05:37:20.057Z,13.37
2023-03-24T05:39:55.580Z,13.27
2023-03-24T05:42:37.061Z,13.50
2023-03-24T05:45:09.566Z,13.43
2023-03-24T05:47:40.534Z,13.40
2023-03-24T05:50:11.510Z,13.23
2023-03-24T05:52:44.283Z,13.28
2023-03-24T05:55:46.024Z,13.34
2023-03-24T05:58:39.352Z,13.33
2023-03-24T06:01:18.520Z,13.51
2023-03-24T06:03:50.764Z,13.56
2023-03-24T06:06:20.816Z,13.40
2023-03-24T06:08:54.591Z,13.60
2023-03-24T06:11:24.898Z,13.52
2023-03-24T06:14:03.565Z,13.56
2023-03-24T06:16:42.807Z,13.54
2023-03-24T06:19:16.120Z,13.69
2023-03-24T06:22:02.889Z,13.46
2023-03-24T06:24:39.792Z,13.67
2023-03-24T06:27:14.350Z,13.83
2023-03-24T06:29:45.223Z,13.64
2023-03-24T06:32:17.016Z,13.51
2023-03-24T06:34:47.772Z,13.33
2023-03-24T06:37:32.436Z,13.35
2023-03-24T06:40:10.723Z,13.41
2023-03-24T06:42:45.155Z,13.35
2023-03-24T06:45:15.682Z,13.51
2023-03-24T06:47:45.721Z,13.58
2023-03-24T06:50:15.926Z,13.40
2023-03-24T06:52:45.974Z,13.30
2023-03-24T06:55:22.411Z,13.39
2023-03-24T06:57:55.266Z,13.45
2023-03-24T07:00:34.886Z,13.41
2023-03-24T07:03:31.855Z,13.35
2023-03-24T07:06:25.796Z,13.10
2023-03-24T07:08:58.912Z,13.14
2023-03-24T07:11:33.456Z,13.27
2023-03-24T07:14:06.027Z,13.15
2023-03-24T07:16:37.545Z,13.17
2023-03-24T07:19:26.335Z,13.14
2023-03-24T07:22:28.554Z,13.07
2023-03-24T07:25:20.445Z,13.15
2023-03-24T07:28:09.969Z,13.04
2023-03-24T07:30:41.331Z,13.12
2023-03-24T07:33:13.713Z,13.12
2023-03-24T07:35:47.297Z,13.08
2023-03-24T07:38:17.488Z,13.11
2023-03-24T07:40:49.041Z,12.99
2023-03-24T07:43:22.113Z,13.07
2023-03-24T07:46:17.297Z,13.11
2023-03-24T07:48:47.732Z,13.27
2023-03-24T07:51:20.180Z,13.48
2023-03-24T07:54:08.435Z,13.49
2023-03-24T07:56:43.072Z,13.44
2023-03-24T07:59:17.723Z,13.66
2023-03-24T08:01:57.581Z,13.70
2023-03-24T08:04:43.083Z,13.60
2023-03-24T08:07:32.756Z,13.62
2023-03-24T08:10:03.438Z,13.59
2023-03-24T08:12:33.408Z,13.61
2023-03-24T08:15:06.381Z,13.68
2023-03-24T08:17:36.898Z,13.78
2023-03-24T08:20:14.855Z,13.89
2023-03-24T08:22:50.132Z,14.03
2023-03-24T08:25:22.307Z,14.00
2023-03-24T08:27:52.649Z,14.09
2023-03-24T08:30:28.417Z,14.08
2023-03-24T08:33:00.657Z,14.19
2023-03-24T08:35:34.259Z,14.16
2023-03-24T08:38:07.096Z,14.19
2023-03-24T08:40:38.864Z,14.21
2023-03-24T08:43:12.504Z,14.30
2023-03-24T08:45:45.612Z,14.34
2023-03-24T08:48:15.890Z,14.29
2023-03-24T08:50:46.279Z,14.33
2023-03-24T08:53:16.331Z,14.41
2023-03-24T08:55:46.900Z,14.49
2023-03-24T08:58:19.240Z,14.60
2023-03-24T09:00:52.292Z,14.76
2023-03-24T09:03:23.107Z,14.73
2023-03-24T09:05:53.369Z,14.71
2023-03-24T09:08:23.318Z,14.68
2023-03-24T09:10:54.097Z,14.56
2023-03-24T09:13:24.197Z,14.49
2023-03-24T09:16:01.924Z,14.52
2023-03-24T09:18:32.802Z,14.64
2023-03-24T09:21:02.796Z,14.68
2023-03-24T09:23:32.758Z,14.56
2023-03-24T09:26:03.949Z,14.62
2023-03-24T09:28:34.171Z,14.69
2023-03-24T09:31:09.186Z,14.75
2023-03-24T09:33:39.147Z,14.69
2023-03-24T09:36:10.356Z,14.75
2023-03-24T09:38:40.300Z,14.91
2023-03-24T09:41:20.638Z,14.95
2023-03-24T09:43:57.321Z,14.89
2023-03-24T09:46:38.288Z,15.14
2023-03-24T09:49:08.444Z,15.27
2023-03-24T09:51:43.909Z,15.21
2023-03-24T09:54:23.935Z,15.14
2023-03-24T09:56:55.697Z,15.12
2023-03-24T09:59:36.973Z,15.10
2023-03-24T10:02:15.292Z,15.10
2023-03-24T10:04:45.797Z,15.14
2023-03-24T10:07:27.462Z,15.18
2023-03-24T10:10:01.118Z,15.01
2023-03-24T10:12:38.955Z,15.23
2023-03-24T10:18:23.829Z,15.10
2023-03-24T10:20:59.321Z,15.05
2023-03-24T10:23:39.563Z,15.11
2023-03-24T10:26:28.159Z,15.10
2023-03-24T10:29:18.811Z,15.33
2023-03-24T10:31:54.208Z,15.31
2023-03-24T10:34:33.258Z,15.49
2023-03-24T10:37:05.857Z,15.58
2023-03-24T10:39:44.238Z,15.56
2023-03-24T10:42:22.453Z,15.71
2023-03-24T10:44:55.086Z,15.71
2023-03-24T10:47:30.700Z,15.91
2023-03-24T10:50:11.951Z,15.87
2023-03-24T10:52:47.445Z,15.88
2023-03-24T10:55:20.377Z,15.88
2023-03-24T10:57:55.734Z,15.83
2023-03-24T11:00:29.835Z,16.01
2023-03-24T11:03:03.444Z,15.95
2023-03-24T11:05:40.318Z,15.81
2023-03-24T11:08:30.064Z,15.70
2023-03-24T11:11:00.407Z,15.77
2023-03-24T11:13:33.672Z,16.22
2023-03-24T11:16:15.852Z,16.37
2023-03-24T11:19:02.915Z,16.05
2023-03-24T11:21:39.758Z,16.06
2023-03-24T11:24:15.874Z,16.17
2023-03-24T11:27:02.440Z,16.20
2023-03-24T11:29:36.651Z,16.53
2023-03-24T11:32:15.980Z,16.31
2023-03-24T11:34:52.869Z,16.26
2023-03-24T11:37:37.686Z,16.10
2023-03-24T11:40:19.672Z,15.79
2023-03-24T11:42:52.538Z,15.80
2023-03-24T11:45:28.036Z,15.72
2023-03-24T11:48:01.067Z,15.70
2023-03-24T11:50:36.070Z,15.63
2023-03-24T11:53:17.627Z,15.39
2023-03-24T11:55:55.274Z,14.29
2023-03-24T11:58:38.726Z,13.97
2023-03-24T12:01:17.040Z,13.76
2023-03-24T12:04:07.620Z,13.56
2023-03-24T12:06:53.118Z,12.97
2023-03-24T12:09:34.380Z,12.96
2023-03-24T12:12:23.094Z,13.02
2023-03-24T12:15:28.218Z,13.03
2023-03-24T12:18:15.931Z,12.78
2023-03-24T12:20:57.087Z,12.90
2023-03-24T12:23:39.494Z,12.94
2023-03-24T12:26:23.516Z,13.06
2023-03-24T12:29:40.989Z,12.97
2023-03-24T12:32:43.346Z,12.91
2023-03-24T12:35:34.600Z,13.00
2023-03-24T12:38:21.192Z,13.03
2023-03-24T12:41:20.476Z,12.95
2023-03-24T12:44:18.420Z,12.86
2023-03-24T12:47:02.492Z,12.96
2023-03-24T12:49:49.599Z,13.10
2023-03-24T12:52:37.385Z,13.03
2023-03-24T12:55:15.057Z,13.14
2023-03-24T12:57:53.371Z,13.17
2023-03-24T13:00:31.384Z,13.10
2023-03-24T13:03:07.723Z,13.13
2023-03-24T13:05:44.554Z,13.06
2023-03-24T13:08:23.064Z,13.10
2023-03-24T13:10:59.989Z,13.02
2023-03-24T13:13:35.683Z,13.22
2023-03-24T13:16:16.774Z,13.35
2023-03-24T13:18:53.529Z,13.38
2023-03-24T13:21:26.125Z,13.45
2023-03-24T13:24:01.941Z,13.53
2023-03-24T13:26:42.858Z,13.52
2023-03-24T13:29:38.477Z,13.62
2023-03-24T13:32:32.532Z,13.72
2023-03-24T13:35:14.728Z,13.64
2023-03-24T13:37:53.070Z,13.83
2023-03-24T13:40:26.339Z,13.74
2023-03-24T13:42:59.708Z,13.87
2023-03-24T13:45:48.570Z,13.89
2023-03-24T13:48:32.421Z,13.97
2023-03-24T13:51:08.373Z,14.20
2023-03-24T13:53:47.649Z,14.44
2023-03-24T13:56:28.945Z,14.54
2023-03-24T13:59:27.247Z,14.55
2023-03-24T14:02:22.896Z,14.45
2023-03-24T14:05:06.386Z,14.33
2023-03-24T14:07:47.057Z,14.37
2023-03-24T14:10:40.087Z,14.32
2023-03-24T14:13:26.177Z,14.19
2023-03-24T14:15:58.541Z,14.23
2023-03-24T14:18:52.261Z,14.31
2023-03-24T14:21:33.230Z,14.45
2023-03-24T14:24:04.325Z,14.48
2023-03-24T14:26:37.316Z,14.53
2023-03-24T14:29:07.407Z,14.70
2023-03-24T14:31:39.129Z,15.27
2023-03-24T14:34:20.482Z,15.90
2023-03-24T14:37:03.930Z,15.99
2023-03-24T14:39:39.713Z,15.75
2023-03-24T14:42:31.211Z,15.66
2023-03-24T14:45:03.339Z,15.87
2023-03-24T14:47:36.899Z,15.89
2023-03-24T14:50:21.455Z,15.68
2023-03-24T14:52:58.436Z,15.56
2023-03-24T14:55:30.054Z,15.52
2023-03-24T14:58:07.852Z,15.52
2023-03-24T15:00:51.833Z,15.44
2023-03-24T15:03:41.984Z,15.52
2023-03-24T15:06:19.911Z,15.50
2023-03-24T15:08:58.504Z,15.90
2023-03-24T15:11:33.257Z,15.85
2023-03-24T15:14:05.258Z,15.53
2023-03-24T15:16:39.267Z,15.59
2023-03-24T15:19:13.045Z,15.38
2023-03-24T15:21:49.261Z,15.36
2023-03-24T15:24:35.185Z,17.54
2023-03-24T15:27:21.985Z,18.21
2023-03-24T15:29:59.333Z,17.05
2023-03-24T15:32:32.399Z,17.18
2023-03-24T15:35:07.418Z,16.54
2023-03-24T15:37:41.692Z,16.00
2023-03-24T15:40:40.233Z,15.77
2023-03-24T15:43:21.796Z,15.58
2023-03-24T15:46:08.896Z,17.66
2023-03-24T15:48:42.786Z,20.26
2023-03-24T15:51:13.129Z,20.94
2023-03-24T15:53:49.330Z,21.57
2023-03-24T15:56:29.200Z,21.61
2023-03-24T15:59:09.834Z,20.50
2023-03-24T16:01:44.103Z,20.21
2023-03-24T16:04:19.196Z,20.47
2023-03-24T16:06:54.469Z,21.03
2023-03-24T16:09:27.711Z,21.17
2023-03-24T16:12:00.837Z,21.60
2023-03-24T16:14:32.988Z,22.34
2023-03-24T16:17:05.307Z,20.84
2023-03-24T16:19:36.081Z,21.41
2023-03-24T16:22:12.708Z,22.26
2023-03-24T16:24:42.650Z,22.43
2023-03-24T16:27:15.687Z,22.68
2023-03-24T16:29:46.231Z,22.66
2023-03-24T16:32:17.149Z,21.87
2023-03-24T16:34:47.184Z,22.28
2023-03-24T16:37:17.164Z,21.50
2023-03-24T16:39:47.153Z,21.24
2023-03-24T16:42:19.735Z,20.63
2023-03-24T16:44:49.728Z,20.49
2023-03-24T16:47:19.762Z,19.36
2023-03-24T16:49:49.751Z,19.43
2023-03-24T16:52:19.721Z,19.30
2023-03-24T16:54:50.666Z,19.40
2023-03-24T16:57:23.351Z,19.25
2023-03-24T16:59:53.345Z,18.83
2023-03-24T17:02:24.041Z,18.36
2023-03-24T17:04:54.249Z,17.74
2023-03-24T17:07:24.372Z,17.59
2023-03-24T17:09:54.428Z,17.56
2023-03-24T17:12:27.826Z,17.42
2023-03-24T17:14:57.743Z,16.95
2023-03-24T17:17:27.750Z,16.87
2023-03-24T17:19:58.190Z,16.83
2023-03-24T17:22:28.295Z,16.53
2023-03-24T17:24:58.486Z,16.36
2023-03-24T17:27:31.205Z,16.16
2023-03-24T17:30:02.348Z,15.95
2023-03-24T17:32:33.445Z,15.99
2023-03-24T17:35:04.342Z,15.75
2023-03-24T17:37:34.982Z,15.63
2023-03-24T17:40:08.082Z,15.46
2023-03-24T17:42:45.200Z,15.38
2023-03-24T17:45:18.539Z,15.29
2023-03-24T17:47:49.025Z,15.19
2023-03-24T17:50:19.150Z,15.16
2023-03-24T17:52:51.255Z,15.11
2023-03-24T17:55:21.481Z,14.91
2023-03-24T17:57:54.013Z,14.94
2023-03-24T18:00:24.427Z,14.88
2023-03-24T18:02:54.413Z,14.85
2023-03-24T18:05:24.491Z,14.78
2023-03-24T18:07:54.368Z,14.73
2023-03-24T18:10:24.336Z,14.54
2023-03-24T18:12:57.200Z,14.50
2023-03-24T18:15:27.519Z,14.55
2023-03-24T18:17:57.455Z,14.49
2023-03-24T18:20:27.714Z,14.26
2023-03-24T18:22:57.696Z,14.24
2023-03-24T18:25:27.767Z,14.10
2023-03-24T18:28:00.533Z,14.08
2023-03-24T18:30:30.938Z,14.09
2023-03-24T18:33:02.299Z,14.05
2023-03-24T18:35:32.364Z,13.93
2023-03-24T18:38:02.264Z,13.86
2023-03-24T18:40:32.217Z,13.80
2023-03-24T18:43:04.929Z,13.81
2023-03-24T18:45:34.991Z,13.76
2023-03-24T18:48:05.137Z,13.69
2023-03-24T18:50:35.883Z,13.67
2023-03-24T18:53:05.882Z,13.68
2023-03-24T18:55:35.825Z,13.63
2023-03-24T18:58:13.885Z,13.59
2023-03-24T19:00:44.257Z,13.59
2023-03-24T19:03:14.239Z,13.53
2023-03-24T19:05:44.240Z,13.49
2023-03-24T19:08:15.165Z,13.38
2023-03-24T19:10:45.836Z,13.38
2023-03-24T19:13:19.750Z,13.39
2023-03-24T19:15:55.257Z,13.36
2023-03-24T19:18:26.482Z,13.37
2023-03-24T19:20:58.797Z,13.27
2023-03-24T19:23:29.760Z,13.23
2023-03-24T19:26:00.117Z,13.28
2023-03-24T19:28:36.905Z,13.23
2023-03-24T19:31:12.190Z,13.16
2023-03-24T19:33:42.208Z,13.17
2023-03-24T19:36:13.219Z,13.10
2023-03-24T19:38:43.394Z,13.14
2023-03-24T19:41:15.733Z,13.15
2023-03-24T19:43:48.501Z,13.10
2023-03-24T19:46:25.027Z,13.08
2023-03-24T19:48:56.423Z,13.01
2023-03-24T19:51:26.665Z,13.01
2023-03-24T19:53:56.609Z,12.98
2023-03-24T19:56:26.639Z,12.95
2023-03-24T19:58:59.287Z,12.94
2023-03-24T20:01:35.049Z,12.91
2023-03-24T20:04:05.889Z,12.92
2023-03-24T20:06:35.994Z,12.87
2023-03-24T20:09:06.172Z,12.79
2023-03-24T20:11:36.941Z,12.82
2023-03-24T20:14:10.813Z,12.76
2023-03-24T20:16:40.895Z,12.75
2023-03-24T20:19:10.792Z,12.52
2023-03-24T20:21:40.717Z,12.32
2023-03-24T20:24:12.012Z,12.29
2023-03-24T20:26:42.483Z,12.26
2023-03-24T20:29:15.034Z,12.26
2023-03-24T20:31:45.410Z,12.27
2023-03-24T20:34:16.450Z,12.31
2023-03-24T20:36:46.399Z,12.36
2023-03-24T20:39:17.588Z,12.24
2023-03-24T20:41:47.517Z,12.15
2023-03-24T20:44:20.009Z,12.24
2023-03-24T20:46:49.938Z,12.07
2023-03-24T20:49:19.871Z,12.03
2023-03-24T20:51:50.210Z,12.14
2023-03-24T20:54:21.466Z,12.15
2023-03-24T20:56:52.727Z,12.01
2023-03-24T20:59:26.359Z,12.01
2023-03-24T21:01:56.426Z,11.94
2023-03-24T21:04:26.439Z,11.90
2023-03-24T21:06:56.987Z,11.89
2023-03-24T21:09:27.798Z,11.86
2023-03-24T21:11:57.754Z,11.86
2023-03-24T21:14:30.437Z,11.73
2023-03-24T21:17:00.860Z,11.73
2023-03-24T21:19:31.045Z,11.78
2023-03-24T21:22:03.297Z,11.72
2023-03-24T21:24:33.618Z,11.67
2023-03-24T21:27:03.573Z,11.61
2023-03-24T21:29:36.295Z,11.64
2023-03-24T21:32:06.378Z,11.64
2023-03-24T21:34:36.375Z,11.62
2023-03-24T21:37:06.321Z,11.75
2023-03-24T21:39:37.128Z,11.64
2023-03-24T21:42:07.677Z,11.74
2023-03-24T21:44:42.978Z,11.67
2023-03-24T21:47:13.061Z,11.86
2023-03-24T21:49:43.098Z,11.80
2023-03-24T21:52:14.480Z,11.83
2023-03-24T21:54:44.462Z,11.84
2023-03-24T21:57:16.274Z,11.91
2023-03-24T21:59:49.013Z,11.71
2023-03-24T22:02:24.650Z,11.81
2023-03-24T22:04:55.028Z,11.77
2023-03-24T22:07:25.294Z,11.76
2023-03-24T22:09:55.227Z,11.88
2023-03-24T22:12:25.191Z,11.80
2023-03-24T22:14:57.778Z,11.82
2023-03-24T22:17:27.872Z,11.87
2023-03-24T22:19:57.834Z,11.88
2023-03-24T22:22:27.879Z,11.78
2023-03-24T22:24:57.911Z,11.48
2023-03-24T22:27:27.987Z,11.09
2023-03-24T22:30:00.566Z,10.77
2023-03-24T22:32:31.009Z,10.66
2023-03-24T22:35:01.815Z,10.66
2023-03-24T22:37:31.913Z,10.54
2023-03-24T22:40:02.008Z,10.61
2023-03-24T22:42:31.973Z,10.51
2023-03-24T22:45:04.581Z,10.67
2023-03-24T22:47:34.628Z,10.44
2023-03-24T22:50:04.912Z,10.37
2023-03-24T22:52:35.469Z,10.37
2023-03-24T22:55:05.613Z,10.21
2023-03-24T22:57:35.576Z,10.09
2023-03-24T23:00:10.088Z,10.05
2023-03-24T23:02:40.164Z,10.04
2023-03-24T23:05:10.699Z,10.03
2023-03-24T23:07:42.227Z,9.96
2023-03-24T23:10:13.474Z,9.87
2023-03-24T23:12:44.070Z,9.80
2023-03-24T23:15:17.963Z,9.81
2023-03-24T23:17:48.140Z,9.62
2023-03-24T23:20:19.793Z,9.64
2023-03-24T23:22:51.392Z,9.84
2023-03-24T23:25:21.785Z,9.84
2023-03-24T23:27:51.857Z,9.86
2023-03-24T23:30:24.454Z,9.83
2023-03-24T23:32:54.501Z,9.76
2023-03-24T23:35:24.496Z,9.78
2023-03-24T23:37:54.512Z,9.76
2023-03-24T23:40:24.459Z,9.80
2023-03-24T23:42:54.561Z,9.86
2023-03-24T23:45:27.217Z,9.84
2023-03-24T23:47:57.604Z,9.85
2023-03-24T23:50:29.372Z,9.81
2023-03-24T23:52:59.540Z,9.81
2023-03-24T23:55:29.578Z,9.86
2023-03-24T23:57:59.619Z,9.87
